createdAt,value
2022-09-02T00:01:37.953Z,12.50
2022-09-02T00:06:36.380Z,12.60
2022-09-02T00:11:35.745Z,12.60
2022-09-02T00:16:33.591Z,12.60
2022-09-02T00:21:34.401Z,12.60
2022-09-02T00:26:32.161Z,12.60
2022-09-02T00:31:29.490Z,12.60
2022-09-02T00:36:27.462Z,12.40
2022-09-02T00:41:28.071Z,12.20
2022-09-02T00:46:27.371Z,12.30
2022-09-02T00:51:33.420Z,12.30
2022-09-02T00:56:32.633Z,12.00
2022-09-02T01:01:30.233Z,11.90
2022-09-02T01:06:29.451Z,11.80
2022-09-02T01:11:48.670Z,11.80
2022-09-02T01:16:55.241Z,11.90
2022-09-02T01:21:54.463Z,12.00
2022-09-02T01:26:57.120Z,11.90
2022-09-02T01:31:54.714Z,11.70
2022-09-02T01:36:52.355Z,11.60
2022-09-02T01:41:49.806Z,11.50
2022-09-02T01:46:47.439Z,11.50
2022-09-02T01:51:44.865Z,11.60
2022-09-02T01:56:42.431Z,11.70
2022-09-02T02:01:39.847Z,11.90
2022-09-02T02:06:43.095Z,11.80
2022-09-02T02:11:41.952Z,11.60
2022-09-02T02:16:39.332Z,11.60
2022-09-02T02:21:37.224Z,11.60
2022-09-02T02:26:35.488Z,11.50
2022-09-02T02:31:33.387Z,11.40
2022-09-02T02:36:30.864Z,11.40
2022-09-02T02:41:30.288Z,11.40
2022-09-02T02:46:28.874Z,11.30
2022-09-02T02:51:27.372Z,11.30
2022-09-02T02:56:24.742Z,11.30
2022-09-02T03:01:22.442Z,11.30
2022-09-02T03:06:24.843Z,11.50
2022-09-02T03:11:26.872Z,11.30
2022-09-02T03:16:24.497Z,11.20
2022-09-02T03:21:22.171Z,11.10
2022-09-02T03:26:21.462Z,10.90
2022-09-02T03:31:21.918Z,11.10
2022-09-02T03:36:22.271Z,10.90
2022-09-02T03:41:19.912Z,10.80
2022-09-02T03:46:18.449Z,10.70
2022-09-02T03:51:17.091Z,10.70
2022-09-02T03:56:17.101Z,10.60
2022-09-02T04:01:20.356Z,10.40
2022-09-02T04:06:20.242Z,10.50
2022-09-02T04:11:21.851Z,10.40
2022-09-02T04:16:22.875Z,10.40
2022-09-02T04:21:20.173Z,10.50
2022-09-02T04:26:18.665Z,10.60
2022-09-02T04:31:18.976Z,10.60
2022-09-02T04:36:18.068Z,10.50
2022-09-02T04:41:23.142Z,10.40
2022-09-02T04:46:29.688Z,10.40
2022-09-02T04:51:33.233Z,10.40
2022-09-02T04:56:32.501Z,10.50
2022-09-02T05:01:34.219Z,10.50
2022-09-02T05:06:32.183Z,10.60
2022-09-02T05:11:31.381Z,10.60
2022-09-02T05:16:31.872Z,10.90
2022-09-02T05:21:31.304Z,11.00
2022-09-02T05:26:30.727Z,11.30
2022-09-02T05:31:29.270Z,11.40
2022-09-02T05:36:27.046Z,11.50
2022-09-02T05:41:25.310Z,11.40
2022-09-02T05:46:24.414Z,11.40
2022-09-02T05:51:22.909Z,11.40
2022-09-02T05:56:21.504Z,11.70
2022-09-02T06:01:20.260Z,12.00
2022-09-02T06:06:18.853Z,12.60
2022-09-02T06:11:18.091Z,13.10
2022-09-02T06:16:19.579Z,13.90
2022-09-02T06:21:17.519Z,17.40
2022-09-02T06:26:16.562Z,16.90
2022-09-02T06:31:18.126Z,16.30
2022-09-02T06:36:17.855Z,15.10
2022-09-02T06:41:18.041Z,14.90
2022-09-02T06:46:18.048Z,14.80
2022-09-02T06:51:19.371Z,14.80
2022-09-02T06:56:16.650Z,15.10
2022-09-02T07:01:23.120Z,15.80
2022-09-02T07:06:21.512Z,16.20
2022-09-02T07:11:24.086Z,19.90
2022-09-02T07:16:26.979Z,23.30
2022-09-02T07:21:24.634Z,24.50
2022-09-02T07:26:23.023Z,25.20
2022-09-02T07:31:20.436Z,25.80
2022-09-02T07:36:21.772Z,25.30
2022-09-02T07:41:19.562Z,27.40
2022-09-02T07:46:17.683Z,27.80
2022-09-02T07:51:15.441Z,27.00
2022-09-02T07:56:14.080Z,27.60
2022-09-02T08:01:11.818Z,26.80
2022-09-02T08:06:09.722Z,27.30
2022-09-02T08:11:07.778Z,27.10
2022-09-02T08:16:05.916Z,27.30
2022-09-02T08:21:03.671Z,27.40
2022-09-02T08:26:03.140Z,28.70
2022-09-02T08:31:05.846Z,28.60
2022-09-02T08:36:08.591Z,27.50
2022-09-02T08:41:21.491Z,28.40
2022-09-02T08:46:22.221Z,28.90
2022-09-02T08:51:43.151Z,29.10
2022-09-02T08:56:41.852Z,28.20
2022-09-02T09:01:54.622Z,28.00
2022-09-02T09:07:18.660Z,28.30
2022-09-02T09:12:48.211Z,28.00
2022-09-02T09:18:03.278Z,27.50
2022-09-02T09:23:06.101Z,27.30
2022-09-02T09:28:03.711Z,27.30
2022-09-02T09:33:01.343Z,27.00
2022-09-02T09:37:59.551Z,26.40
2022-09-02T09:48:23.935Z,27.10
2022-09-02T09:53:24.991Z,26.60
2022-09-02T09:58:41.232Z,26.50
2022-09-02T10:03:43.341Z,26.90
2022-09-02T10:09:00.701Z,26.80
2022-09-02T10:14:12.305Z,26.70
2022-09-02T10:19:41.640Z,26.80
2022-09-02T10:24:57.270Z,26.20
2022-09-02T10:30:25.843Z,25.90
2022-09-02T10:35:32.096Z,24.70
2022-09-02T10:40:41.952Z,23.90
2022-09-02T10:45:58.338Z,23.30
2022-09-02T10:51:16.762Z,23.40
2022-09-02T10:56:24.650Z,23.40
2022-09-02T11:01:41.787Z,22.80
2022-09-02T11:07:01.441Z,22.60
2022-09-02T11:12:18.170Z,22.70
2022-09-02T11:17:26.872Z,22.90
2022-09-02T11:22:49.900Z,22.40
2022-09-02T11:27:52.860Z,22.20
2022-09-02T11:33:05.072Z,22.30
2022-09-02T11:38:32.790Z,22.40
2022-09-02T11:43:50.047Z,22.30
2022-09-02T11:49:03.313Z,22.10
2022-09-02T11:54:04.660Z,22.00
2022-09-02T11:59:03.940Z,21.70
2022-09-02T12:04:48.604Z,21.70
2022-09-02T12:14:47.441Z,21.70
2022-09-02T12:19:46.091Z,21.80
2022-09-02T12:24:53.565Z,21.80
2022-09-02T12:29:53.227Z,21.80
2022-09-02T12:34:55.006Z,22.00
2022-09-02T12:39:55.324Z,22.10
2022-09-02T12:45:15.551Z,22.00
2022-09-02T12:50:32.536Z,22.30
2022-09-02T12:55:32.241Z,22.60
2022-09-02T13:00:32.281Z,22.70
2022-09-02T13:05:49.972Z,22.90
2022-09-02T13:11:07.008Z,23.00
2022-09-02T13:16:19.581Z,23.10
2022-09-02T13:21:41.812Z,23.20
2022-09-02T13:27:01.404Z,23.10
2022-09-02T13:32:01.345Z,23.00
2022-09-02T13:36:58.683Z,23.10
2022-09-02T13:41:57.269Z,23.20
2022-09-02T13:47:05.441Z,23.40
2022-09-02T13:52:54.864Z,23.60
2022-09-02T13:57:46.650Z,23.60
2022-09-02T14:02:59.985Z,23.50
2022-09-02T14:08:00.605Z,23.50
2022-09-02T14:12:59.202Z,23.60
2022-09-02T14:18:19.861Z,23.60
2022-09-02T14:23:17.426Z,23.80
2022-09-02T14:28:22.502Z,23.70
2022-09-02T14:33:23.058Z,23.40
2022-09-02T14:38:24.644Z,23.30
2022-09-02T14:43:21.925Z,23.30
2022-09-02T14:48:23.983Z,23.40
2022-09-02T14:53:23.528Z,23.40
2022-09-02T14:58:27.029Z,23.10
2022-09-02T15:03:26.322Z,23.10
2022-09-02T15:08:24.399Z,23.00
2022-09-02T15:13:27.510Z,22.80
2022-09-02T15:18:25.825Z,22.50
2022-09-02T15:23:24.327Z,22.40
2022-09-02T15:28:22.053Z,22.30
2022-09-02T15:33:19.561Z,22.30
2022-09-02T15:38:17.276Z,22.20
2022-09-02T15:43:14.866Z,22.20
2022-09-02T15:48:12.111Z,22.30
2022-09-02T15:53:09.272Z,22.50
2022-09-02T15:58:06.766Z,22.50
2022-09-02T16:03:04.161Z,22.50
2022-09-02T16:08:01.785Z,22.60
2022-09-02T16:13:00.910Z,22.60
2022-09-02T16:17:58.496Z,22.60
2022-09-02T16:22:55.987Z,22.50
2022-09-02T16:27:53.642Z,22.30
2022-09-02T16:32:51.821Z,22.30
2022-09-02T16:37:49.573Z,22.30
2022-09-02T16:42:47.063Z,22.30
2022-09-02T16:47:44.942Z,22.30
2022-09-02T16:52:42.251Z,22.30
2022-09-02T16:57:39.542Z,22.20
2022-09-02T17:02:36.771Z,22.10
2022-09-02T17:07:34.124Z,21.90
2022-09-02T17:12:31.394Z,21.70
2022-09-02T17:17:29.317Z,21.40
2022-09-02T17:22:27.831Z,21.20
2022-09-02T17:27:25.160Z,21.00
2022-09-02T17:32:22.498Z,20.70
2022-09-02T17:37:22.364Z,20.50
2022-09-02T17:42:21.571Z,20.40
2022-09-02T17:47:21.979Z,20.30
2022-09-02T17:52:24.074Z,20.10
2022-09-02T17:57:37.004Z,19.90
2022-09-02T18:02:36.430Z,19.70
2022-09-02T18:08:01.679Z,19.50
2022-09-02T18:13:02.479Z,19.40
2022-09-02T18:17:59.673Z,19.50
2022-09-02T18:23:15.957Z,19.40
